createdAt,value
2017-12-03T00:01:11.801Z,76.20
2017-12-03T00:03:46.178Z,75.70
2017-12-03T00:06:19.881Z,75.70
2017-12-03T00:08:54.304Z,75.70
2017-12-03T00:11:28.725Z,75.30
2017-12-03T00:14:02.485Z,75.30
2017-12-03T00:16:36.960Z,75.50
2017-12-03T00:19:10.763Z,75.50
2017-12-03T00:21:44.510Z,75.50
2017-12-03T00:24:19.153Z,75.20
2017-12-03T00:26:54.089Z,75.30
2017-12-03T00:29:28.128Z,75.00
2017-12-03T00:32:02.448Z,75.00
2017-12-03T00:34:36.104Z,75.00
2017-12-03T00:37:09.760Z,75.20
2017-12-03T00:39:44.007Z,74.80
2017-12-03T00:42:19.212Z,74.60
2017-12-03T00:44:53.760Z,74.50
2017-12-03T00:47:30.108Z,74.50
2017-12-03T00:50:07.285Z,74.20
2017-12-03T00:52:42.862Z,74.20
2017-12-03T00:55:17.143Z,74.10
2017-12-03T00:57:52.398Z,74.40
2017-12-03T01:00:26.979Z,74.10
2017-12-03T01:03:02.254Z,74.40
2017-12-03T01:05:38.348Z,74.40
2017-12-03T01:08:12.076Z,74.10
2017-12-03T01:10:46.544Z,74.10
2017-12-03T01:13:21.071Z,74.10
2017-12-03T01:15:54.672Z,74.00
2017-12-03T01:18:29.192Z,74.60
2017-12-03T01:21:03.666Z,74.60
2017-12-03T01:23:37.328Z,74.60
2017-12-03T01:26:11.117Z,74.60
2017-12-03T01:28:45.645Z,75.10
2017-12-03T01:31:19.240Z,74.80
2017-12-03T01:33:52.992Z,75.00
2017-12-03T01:36:27.571Z,74.50
2017-12-03T01:39:01.203Z,74.40
2017-12-03T01:41:35.590Z,74.50
2017-12-03T01:44:11.100Z,74.20
2017-12-03T01:46:48.291Z,74.70
2017-12-03T01:49:23.632Z,74.50
2017-12-03T01:51:57.964Z,74.50
2017-12-03T01:54:32.308Z,75.00
2017-12-03T01:57:07.185Z,75.20
2017-12-03T01:59:42.671Z,75.50
2017-12-03T02:02:17.916Z,76.70
2017-12-03T02:04:53.279Z,76.60
2017-12-03T02:07:26.879Z,77.10
2017-12-03T02:10:02.188Z,77.50
2017-12-03T02:12:37.588Z,77.50
2017-12-03T02:15:14.648Z,77.50
2017-12-03T02:17:49.774Z,77.50
2017-12-03T02:20:24.195Z,77.60
2017-12-03T02:22:58.601Z,77.60
2017-12-03T02:25:32.371Z,78.30
2017-12-03T02:28:06.313Z,78.20
2017-12-03T02:30:44.536Z,78.80
2017-12-03T02:33:18.268Z,78.90
2017-12-03T02:35:53.277Z,79.40
2017-12-03T02:38:28.428Z,79.40
2017-12-03T02:41:03.184Z,79.80
2017-12-03T02:43:37.753Z,81.30
2017-12-03T02:46:12.729Z,81.30
2017-12-03T02:48:46.295Z,81.50
2017-12-03T02:51:20.070Z,82.90
2017-12-03T02:53:53.768Z,83.50
2017-12-03T02:56:28.496Z,84.60
2017-12-03T02:59:04.119Z,85.30
2017-12-03T03:01:39.605Z,85.40
2017-12-03T03:04:15.544Z,85.30
2017-12-03T03:06:50.481Z,86.20
2017-12-03T03:09:26.911Z,87.10
2017-12-03T03:12:01.340Z,87.10
2017-12-03T03:14:35.939Z,87.20
2017-12-03T03:17:09.513Z,87.20
2017-12-03T03:19:44.633Z,88.00
2017-12-03T03:22:18.364Z,88.00
2017-12-03T03:24:51.934Z,88.10
2017-12-03T03:27:25.922Z,88.30
2017-12-03T03:29:59.693Z,88.40
2017-12-03T03:32:34.546Z,88.70
2017-12-03T03:35:08.232Z,88.90
2017-12-03T03:37:42.000Z,88.80
2017-12-03T03:40:15.726Z,88.70
2017-12-03T03:42:50.296Z,89.20
2017-12-03T03:48:04.915Z,89.20
2017-12-03T03:50:39.124Z,89.20
2017-12-03T03:53:13.642Z,89.30
2017-12-03T03:55:47.429Z,89.30
2017-12-03T03:58:21.172Z,89.30
2017-12-03T04:00:54.896Z,89.30
2017-12-03T04:03:30.101Z,89.30
2017-12-03T04:06:04.646Z,89.30
2017-12-03T04:08:39.041Z,89.30
2017-12-03T04:11:12.672Z,89.30
2017-12-03T04:13:46.381Z,89.30
2017-12-03T04:16:20.234Z,89.30
2017-12-03T04:18:53.850Z,89.50
2017-12-03T04:21:28.170Z,89.90
2017-12-03T04:24:01.902Z,89.90
2017-12-03T04:26:36.321Z,89.80
2017-12-03T04:29:10.815Z,89.80
2017-12-03T04:31:44.596Z,89.80
2017-12-03T04:34:18.288Z,89.70
2017-12-03T04:36:52.660Z,89.80
2017-12-03T04:39:27.075Z,89.80
2017-12-03T04:42:00.889Z,89.80
2017-12-03T04:44:35.393Z,90.00
2017-12-03T04:47:09.088Z,90.00
2017-12-03T04:49:42.829Z,90.10
2017-12-03T04:52:17.354Z,90.20
2017-12-03T04:54:51.776Z,90.40
2017-12-03T04:57:25.949Z,90.40
2017-12-03T04:59:59.586Z,90.40
2017-12-03T05:02:33.208Z,90.50
2017-12-03T05:05:07.576Z,90.70
2017-12-03T05:07:41.258Z,90.70
2017-12-03T05:10:14.990Z,90.70
2017-12-03T05:12:49.554Z,90.80
2017-12-03T05:15:23.190Z,90.80
2017-12-03T05:17:57.456Z,90.80
2017-12-03T05:20:31.214Z,90.80
2017-12-03T05:23:04.982Z,90.80
2017-12-03T05:25:38.722Z,90.80
2017-12-03T05:28:12.511Z,90.80
2017-12-03T05:30:46.968Z,90.90
2017-12-03T05:33:20.576Z,90.90
2017-12-03T05:35:54.348Z,90.90
2017-12-03T05:38:28.896Z,90.90
2017-12-03T05:41:02.653Z,90.90
2017-12-03T05:43:38.128Z,90.90
2017-12-03T05:46:11.852Z,90.90
2017-12-03T05:48:46.193Z,90.90
2017-12-03T05:51:19.989Z,90.90
2017-12-03T05:53:53.727Z,90.90
2017-12-03T05:56:27.522Z,91.00
2017-12-03T05:59:01.163Z,90.90
2017-12-03T06:01:34.895Z,90.90
2017-12-03T06:04:08.468Z,90.90
2017-12-03T06:06:42.166Z,90.80
2017-12-03T06:09:15.952Z,90.90
2017-12-03T06:11:49.682Z,90.90
2017-12-03T06:14:24.070Z,90.80
2017-12-03T06:16:57.775Z,90.80
2017-12-03T06:19:31.369Z,90.80
2017-12-03T06:22:05.217Z,90.90
2017-12-03T06:24:38.900Z,90.80
2017-12-03T06:27:12.540Z,90.80
2017-12-03T06:29:47.101Z,90.90
2017-12-03T06:32:20.702Z,90.90
2017-12-03T06:34:54.490Z,90.90
2017-12-03T06:37:28.997Z,91.00
2017-12-03T06:40:03.327Z,91.00
2017-12-03T06:42:36.932Z,91.00
2017-12-03T06:45:10.655Z,91.00
2017-12-03T06:47:44.429Z,91.10
2017-12-03T06:50:19.140Z,91.10
2017-12-03T06:52:53.464Z,91.10
2017-12-03T06:55:27.347Z,91.10
2017-12-03T06:58:00.964Z,91.20
2017-12-03T07:00:34.688Z,91.20
2017-12-03T07:03:08.224Z,91.20
2017-12-03T07:05:41.828Z,91.30
2017-12-03T07:08:15.596Z,91.20
2017-12-03T07:10:49.241Z,91.20
2017-12-03T07:13:23.059Z,91.20
2017-12-03T07:15:57.562Z,91.10
2017-12-03T07:18:31.316Z,91.10
2017-12-03T07:21:05.067Z,91.20
2017-12-03T07:23:42.324Z,91.20
2017-12-03T07:26:16.697Z,91.30
2017-12-03T07:28:51.843Z,91.30
2017-12-03T07:31:26.523Z,91.30
2017-12-03T07:34:00.262Z,91.30
2017-12-03T07:36:34.752Z,91.30
2017-12-03T07:39:08.424Z,91.30
2017-12-03T07:41:42.240Z,91.30
2017-12-03T07:44:16.048Z,91.30
2017-12-03T07:46:50.653Z,91.30
2017-12-03T07:49:24.250Z,91.30
2017-12-03T07:51:58.709Z,91.30
2017-12-03T07:54:32.450Z,91.30
2017-12-03T07:57:06.964Z,91.30
2017-12-03T07:59:40.797Z,91.30
2017-12-03T08:02:14.688Z,91.30
2017-12-03T08:04:48.497Z,91.30
2017-12-03T08:07:22.180Z,91.20
2017-12-03T08:09:56.279Z,91.20
2017-12-03T08:12:29.983Z,91.10
2017-12-03T08:15:04.548Z,91.00
2017-12-03T08:17:39.589Z,90.90
2017-12-03T08:20:13.944Z,90.90
2017-12-03T08:22:47.749Z,90.90
2017-12-03T08:25:22.330Z,90.90
2017-12-03T08:27:55.898Z,90.90
2017-12-03T08:30:29.636Z,90.90
2017-12-03T08:33:04.101Z,90.90
2017-12-03T08:35:37.699Z,90.90
2017-12-03T08:38:12.341Z,90.80
2017-12-03T08:40:45.978Z,90.80
2017-12-03T08:43:19.599Z,90.80
2017-12-03T08:45:53.349Z,90.80
2017-12-03T08:48:27.865Z,90.70
2017-12-03T08:51:01.572Z,90.70
2017-12-03T08:53:36.004Z,90.50
2017-12-03T08:56:10.540Z,90.40
2017-12-03T08:58:44.071Z,90.40
2017-12-03T09:01:17.816Z,90.40
2017-12-03T09:03:51.421Z,90.30
2017-12-03T09:06:25.074Z,90.20
2017-12-03T09:08:58.624Z,90.00
2017-12-03T09:11:33.468Z,90.00
2017-12-03T09:14:07.165Z,90.00
2017-12-03T09:16:40.760Z,89.90
2017-12-03T09:19:15.282Z,89.90
2017-12-03T09:21:49.680Z,89.90
2017-12-03T09:24:24.092Z,89.80
2017-12-03T09:26:57.874Z,89.80
2017-12-03T09:29:31.605Z,89.80
2017-12-03T09:32:06.164Z,89.40
2017-12-03T09:34:42.337Z,89.40
2017-12-03T09:37:17.152Z,89.20
2017-12-03T09:39:51.000Z,89.30
2017-12-03T09:42:25.432Z,89.50
2017-12-03T09:44:59.883Z,89.40
2017-12-03T09:47:33.679Z,89.60
2017-12-03T09:50:07.280Z,89.60
2017-12-03T09:52:41.007Z,89.60
2017-12-03T09:55:14.782Z,89.50
2017-12-03T09:57:50.160Z,89.80
2017-12-03T10:00:24.594Z,89.90
2017-12-03T10:02:59.095Z,89.80
2017-12-03T10:05:32.706Z,89.80
2017-12-03T10:08:06.453Z,89.70
2017-12-03T10:10:40.217Z,89.60
2017-12-03T10:13:13.969Z,89.70
2017-12-03T10:15:47.688Z,89.70
2017-12-03T10:18:21.390Z,89.70
2017-12-03T10:20:55.161Z,89.60
2017-12-03T10:23:28.943Z,89.80
2017-12-03T10:26:02.747Z,90.00
2017-12-03T10:28:37.198Z,89.90
2017-12-03T10:31:10.829Z,89.90
2017-12-03T10:33:44.499Z,89.80
2017-12-03T10:36:18.297Z,89.70
2017-12-03T10:38:52.032Z,89.70
2017-12-03T10:41:25.815Z,89.70
2017-12-03T10:43:59.601Z,89.80
2017-12-03T10:46:34.077Z,89.40
2017-12-03T10:49:08.591Z,89.40
2017-12-03T10:51:42.863Z,89.30
2017-12-03T10:54:16.424Z,89.70
2017-12-03T10:56:50.201Z,89.40
2017-12-03T10:59:24.404Z,89.50
2017-12-03T11:01:58.543Z,89.30
2017-12-03T11:04:32.141Z,89.30
2017-12-03T11:07:06.686Z,89.10
2017-12-03T11:09:40.430Z,89.10
2017-12-03T11:12:14.916Z,89.20
2017-12-03T11:14:48.629Z,89.20
2017-12-03T11:17:22.211Z,88.90
2017-12-03T11:19:55.919Z,89.10
2017-12-03T11:22:29.664Z,89.10
2017-12-03T11:25:03.396Z,89.00
2017-12-03T11:27:37.157Z,89.00
2017-12-03T11:30:11.615Z,88.90
2017-12-03T11:32:45.306Z,88.90
2017-12-03T11:35:19.061Z,89.00
2017-12-03T11:37:52.797Z,88.90
2017-12-03T11:40:27.260Z,88.90
2017-12-03T11:43:01.612Z,89.20
2017-12-03T11:45:35.253Z,89.20
2017-12-03T11:48:09.032Z,89.10
2017-12-03T11:50:42.774Z,89.80
2017-12-03T11:53:16.372Z,90.30
2017-12-03T11:55:50.861Z,90.20
2017-12-03T11:58:24.606Z,90.20
2017-12-03T12:00:58.374Z,90.40
2017-12-03T12:03:32.938Z,90.40
2017-12-03T12:06:06.742Z,90.40
2017-12-03T12:08:40.516Z,90.40
2017-12-03T12:11:14.311Z,90.60
2017-12-03T12:13:48.063Z,90.60
2017-12-03T12:16:21.841Z,90.70
2017-12-03T12:18:56.857Z,90.80
2017-12-03T12:21:30.692Z,90.70
2017-12-03T12:24:05.893Z,90.70
2017-12-03T12:26:40.480Z,91.00
2017-12-03T12:29:14.374Z,91.00
2017-12-03T12:31:49.072Z,90.90
2017-12-03T12:34:23.972Z,91.10
2017-12-03T12:36:58.202Z,91.00
2017-12-03T12:39:32.835Z,91.10
2017-12-03T12:42:07.364Z,91.20
2017-12-03T12:44:42.188Z,90.90
2017-12-03T12:47:15.933Z,91.10
2017-12-03T12:49:49.645Z,91.00
2017-12-03T12:52:23.404Z,90.80
2017-12-03T12:54:57.117Z,90.80
2017-12-03T12:57:30.942Z,90.50
2017-12-03T13:00:04.620Z,90.50
2017-12-03T13:02:38.387Z,90.20
2017-12-03T13:05:12.144Z,90.20
2017-12-03T13:07:45.894Z,90.10
2017-12-03T13:10:19.589Z,90.00
2017-12-03T13:12:53.362Z,89.20
2017-12-03T13:15:27.085Z,89.40
2017-12-03T13:18:00.801Z,89.00
2017-12-03T13:20:35.684Z,89.40
2017-12-03T13:23:10.088Z,89.90
2017-12-03T13:25:43.816Z,89.90
2017-12-03T13:28:17.617Z,90.10
2017-12-03T13:30:51.291Z,90.00
2017-12-03T13:33:25.801Z,90.00
2017-12-03T13:36:00.442Z,90.00
2017-12-03T13:38:34.022Z,90.20
2017-12-03T13:41:09.649Z,90.30
2017-12-03T13:43:43.373Z,90.30
2017-12-03T13:46:17.829Z,90.50
2017-12-03T13:48:54.859Z,90.50
2017-12-03T13:51:29.468Z,90.50
2017-12-03T13:54:03.859Z,90.80
2017-12-03T13:56:37.606Z,90.80
2017-12-03T13:59:11.261Z,90.60
2017-12-03T14:01:44.976Z,90.70
2017-12-03T14:04:19.496Z,90.80
2017-12-03T14:06:53.096Z,90.80
2017-12-03T14:09:26.859Z,90.80
2017-12-03T14:12:00.596Z,90.80
2017-12-03T14:14:35.416Z,90.80
2017-12-03T14:17:09.136Z,90.80
2017-12-03T14:19:43.637Z,90.50
2017-12-03T14:22:18.023Z,90.60
2017-12-03T14:24:52.481Z,90.60
2017-12-03T14:27:26.052Z,90.50
2017-12-03T14:29:59.807Z,90.70
2017-12-03T14:32:33.489Z,90.70
2017-12-03T14:35:07.264Z,90.70
2017-12-03T14:37:41.829Z,90.90
2017-12-03T14:40:16.664Z,91.00
2017-12-03T14:42:50.341Z,91.00
2017-12-03T14:45:23.986Z,91.00
2017-12-03T14:47:58.495Z,90.90
2017-12-03T14:50:32.895Z,90.90
2017-12-03T14:53:06.708Z,90.90
2017-12-03T14:55:41.466Z,90.90
2017-12-03T14:58:15.952Z,90.90
2017-12-03T15:00:49.601Z,90.90
2017-12-03T15:03:23.325Z,91.00
2017-12-03T15:05:57.893Z,90.90
2017-12-03T15:08:32.297Z,90.80
2017-12-03T15:11:06.864Z,90.80
2017-12-03T15:13:40.495Z,90.90
2017-12-03T15:16:15.051Z,91.00
2017-12-03T15:18:49.281Z,91.10
2017-12-03T15:21:23.700Z,91.10
2017-12-03T15:23:57.476Z,91.00
2017-12-03T15:26:31.553Z,91.10
2017-12-03T15:29:05.220Z,91.10
2017-12-03T15:31:39.024Z,91.20
2017-12-03T15:34:12.733Z,91.30
2017-12-03T15:36:47.973Z,91.40
2017-12-03T15:39:21.683Z,91.40
2017-12-03T15:41:57.142Z,91.50
2017-12-03T15:44:31.581Z,91.50
2017-12-03T15:47:06.110Z,91.50
2017-12-03T15:49:40.649Z,91.60
2017-12-03T15:52:15.013Z,91.60
2017-12-03T15:54:50.269Z,91.60
2017-12-03T15:57:23.870Z,91.60
2017-12-03T15:59:57.817Z,91.60
2017-12-03T16:02:31.623Z,91.60
2017-12-03T16:05:05.385Z,91.70
2017-12-03T16:07:39.809Z,91.70
2017-12-03T16:10:14.268Z,91.60
2017-12-03T16:12:47.882Z,91.70
2017-12-03T16:15:23.661Z,91.70
2017-12-03T16:17:57.360Z,91.70
2017-12-03T16:20:31.092Z,91.60
2017-12-03T16:23:05.089Z,91.60
2017-12-03T16:25:38.770Z,91.60
2017-12-03T16:28:12.584Z,91.60
2017-12-03T16:30:47.201Z,91.50
2017-12-03T16:33:20.828Z,91.40
2017-12-03T16:35:54.587Z,91.40
2017-12-03T16:38:29.160Z,91.40
2017-12-03T16:41:02.785Z,91.30
2017-12-03T16:43:36.564Z,91.20
2017-12-03T16:46:10.857Z,91.20
2017-12-03T16:48:45.480Z,91.10
2017-12-03T16:51:19.263Z,91.20
2017-12-03T16:53:53.005Z,91.10
2017-12-03T16:56:27.221Z,91.00
2017-12-03T16:59:00.884Z,91.10
2017-12-03T17:01:34.659Z,91.10
2017-12-03T17:04:08.394Z,91.20
2017-12-03T17:06:42.140Z,91.20
2017-12-03T17:09:16.641Z,91.20
2017-12-03T17:11:50.451Z,91.20
2017-12-03T17:14:24.151Z,91.30
2017-12-03T17:16:58.098Z,91.20
2017-12-03T17:19:33.935Z,91.20
2017-12-03T17:22:07.700Z,91.20
2017-12-03T17:24:42.223Z,91.30
2017-12-03T17:27:15.893Z,91.40
2017-12-03T17:29:49.632Z,91.40
2017-12-03T17:32:23.264Z,91.40
2017-12-03T17:34:57.089Z,91.40
2017-12-03T17:37:31.592Z,91.40
2017-12-03T17:40:05.314Z,91.40
2017-12-03T17:42:39.383Z,91.40
2017-12-03T17:45:13.973Z,91.40
2017-12-03T17:47:47.553Z,91.40
2017-12-03T17:50:22.264Z,91.40
2017-12-03T17:52:55.874Z,91.40
2017-12-03T17:55:29.626Z,91.40
2017-12-03T17:58:04.146Z,91.50
2017-12-03T18:00:37.906Z,91.50
2017-12-03T18:03:13.086Z,91.50
2017-12-03T18:05:46.895Z,91.60
2017-12-03T18:08:20.600Z,91.60
2017-12-03T18:10:54.247Z,91.70
2017-12-03T18:13:28.010Z,91.80
2017-12-03T18:16:02.557Z,91.90
2017-12-03T18:18:36.380Z,91.90
2017-12-03T18:21:10.959Z,92.00
2017-12-03T18:23:45.750Z,92.10
2017-12-03T18:26:20.300Z,92.20
2017-12-03T18:28:54.697Z,92.20
2017-12-03T18:31:28.880Z,92.20
2017-12-03T18:34:03.539Z,92.20
2017-12-03T18:36:40.303Z,92.30
2017-12-03T18:39:16.409Z,92.40
2017-12-03T18:41:50.768Z,92.50
2017-12-03T18:44:24.665Z,92.40
2017-12-03T18:46:58.683Z,92.40
2017-12-03T18:49:33.785Z,92.40
2017-12-03T18:52:10.106Z,92.40
2017-12-03T18:54:44.450Z,92.40
2017-12-03T18:57:19.268Z,92.40
2017-12-03T18:59:52.957Z,92.40
2017-12-03T19:02:27.416Z,92.60
2017-12-03T19:05:01.132Z,92.60
2017-12-03T19:07:34.824Z,92.50
2017-12-03T19:10:08.660Z,92.50
2017-12-03T19:12:42.379Z,92.40
2017-12-03T19:15:15.980Z,92.50
2017-12-03T19:17:49.665Z,92.40
2017-12-03T19:20:23.407Z,92.50
2017-12-03T19:22:57.140Z,92.40
2017-12-03T19:25:31.771Z,92.40
2017-12-03T19:28:05.588Z,92.40
2017-12-03T19:30:39.396Z,92.40
2017-12-03T19:33:14.520Z,92.40
2017-12-03T19:35:48.129Z,92.40
2017-12-03T19:38:21.831Z,92.40
2017-12-03T19:40:56.429Z,92.60
2017-12-03T19:43:30.027Z,92.60
2017-12-03T19:46:03.764Z,92.50
2017-12-03T19:48:39.197Z,92.40
2017-12-03T19:51:12.989Z,92.40
2017-12-03T19:53:46.654Z,92.40
2017-12-03T19:56:22.053Z,92.40
2017-12-03T19:58:55.892Z,92.50
2017-12-03T20:01:29.638Z,92.50
2017-12-03T20:04:04.074Z,92.70
2017-12-03T20:06:37.724Z,92.60
2017-12-03T20:09:12.293Z,92.60
2017-12-03T20:11:46.694Z,92.60
2017-12-03T20:14:20.273Z,92.60
2017-12-03T20:16:55.004Z,92.70
2017-12-03T20:19:30.291Z,92.70
2017-12-03T20:22:04.153Z,92.70
2017-12-03T20:24:38.011Z,92.70
2017-12-03T20:27:12.331Z,92.70
2017-12-03T20:29:45.907Z,92.70
2017-12-03T20:32:20.385Z,92.70
2017-12-03T20:34:54.773Z,92.70
2017-12-03T20:37:30.192Z,92.70
2017-12-03T20:40:05.549Z,92.70
2017-12-03T20:42:39.160Z,92.70
2017-12-03T20:45:12.922Z,92.70
2017-12-03T20:47:46.729Z,92.70
2017-12-03T20:50:20.442Z,92.70
2017-12-03T20:52:54.193Z,92.70
2017-12-03T20:55:28.744Z,92.70
2017-12-03T20:58:03.430Z,92.80
2017-12-03T21:00:39.748Z,92.70
2017-12-03T21:03:15.613Z,92.80
2017-12-03T21:05:49.378Z,92.80
2017-12-03T21:08:23.249Z,92.80
2017-12-03T21:10:57.113Z,92.80
2017-12-03T21:13:30.870Z,92.80
2017-12-03T21:16:05.204Z,92.80
2017-12-03T21:18:39.242Z,92.80
2017-12-03T21:21:13.011Z,92.80
2017-12-03T21:23:48.609Z,92.80
2017-12-03T21:26:22.179Z,92.80
2017-12-03T21:28:58.085Z,92.80
2017-12-03T21:31:32.453Z,92.80
2017-12-03T21:34:09.716Z,92.80
2017-12-03T21:36:43.467Z,92.80
2017-12-03T21:39:17.173Z,92.80
2017-12-03T21:41:50.981Z,92.80
2017-12-03T21:44:25.445Z,92.80
2017-12-03T21:46:59.189Z,92.80
2017-12-03T21:49:32.804Z,92.80
2017-12-03T21:52:06.502Z,92.80
2017-12-03T21:54:40.310Z,92.80
2017-12-03T21:57:14.013Z,92.80
2017-12-03T21:59:48.552Z,92.80
2017-12-03T22:02:22.901Z,92.80
2017-12-03T22:04:56.585Z,92.90
2017-12-03T22:07:30.419Z,92.90
2017-12-03T22:10:04.026Z,92.90
2017-12-03T22:12:38.558Z,92.90
2017-12-03T22:15:12.205Z,92.90
2017-12-03T22:17:46.868Z,93.00
2017-12-03T22:20:20.425Z,93.00
2017-12-03T22:22:55.870Z,93.00
2017-12-03T22:25:30.400Z,92.90
2017-12-03T22:28:04.057Z,92.90
2017-12-03T22:30:39.252Z,93.00
2017-12-03T22:33:16.554Z,92.90
2017-12-03T22:38:31.929Z,92.90
2017-12-03T22:41:06.801Z,92.90
2017-12-03T22:43:47.053Z,92.90
2017-12-03T22:46:22.033Z,93.00
2017-12-03T22:48:57.057Z,93.00
2017-12-03T22:51:38.172Z,93.00
2017-12-03T22:54:14.886Z,92.90
2017-12-03T22:56:49.900Z,92.90
2017-12-03T22:59:26.212Z,92.90
2017-12-03T23:02:01.025Z,92.80
2017-12-03T23:04:34.731Z,92.80
2017-12-03T23:07:08.477Z,92.70
2017-12-03T23:09:42.954Z,92.60
2017-12-03T23:12:19.564Z,92.60
2017-12-03T23:14:54.104Z,92.60
2017-12-03T23:17:27.758Z,92.60
2017-12-03T23:20:02.421Z,92.60
2017-12-03T23:22:36.066Z,92.60
2017-12-03T23:25:09.828Z,92.50
2017-12-03T23:27:43.549Z,92.50
2017-12-03T23:30:17.342Z,92.40
2017-12-03T23:32:51.794Z,92.30
2017-12-03T23:35:25.667Z,92.20
2017-12-03T23:37:59.356Z,92.20
2017-12-03T23:40:33.000Z,92.20
2017-12-03T23:43:06.734Z,92.20
2017-12-03T23:45:40.482Z,92.20
2017-12-03T23:48:14.245Z,92.20
2017-12-03T23:50:48.020Z,92.20
2017-12-03T23:53:21.800Z,92.20
2017-12-03T23:55:56.852Z,92.40
2017-12-03T23:58:30.591Z,92.40
